Fort Lauderdale Hollywood International Airport
KFLL : now visible

Airfield :











YOU CAN JOIN US ON...

 
LOGIN :

Register | Disclaimer

   EN    FR    IT 

 









Legend :    VFR   Marginal VFR   IFR   Intensive IFR   Very Intensive IFR
Visi :
Ceiling :
>= 8 km
>= 3000ft
5 to 8 km
1000 to 3000 ft
1500m to 5 km
500 to 1000 ft
800 to 1500m
200 to 500 ft
< 800m
< 200 ft
Symbols :   Thunderstorms  Fog  Heavy snow  Heavy precipitations  Wind > 20 kt






- Airport Elevation : 9 ft
- IATA code : FLL


KFLL - Fort Lauderdale Hollywood International

CURRENT METAR :
  • 192253Z 13007KT 10SM FEW028 FEW040 26/21 A3012 RMK AO2 SLP199 T02610206

EXPIRED METARs :
  • 192153Z 14010KT 10SM FEW028 FEW040 27/21 A3011 RMK AO2 SLP196 T02670206
  • 192053Z 14009KT 10SM FEW028 FEW035 27/21 A3011 RMK AO2 SLP197 T02720211 56014

TAF KFLL
Valid from the 19 at 21:00 until the 21 at 00:00 UTC


192120Z 1921/2024 13011KT P6SM SCT025 SCT050
FM200200 12006KT P6SM FEW025 SCT100
FM201400 14008KT P6SM FEW035 SCT050



MET'MAP, your aeronautical weather chart ! - Copyright ORBIFLY December 2007 - Disclaimer

ORBIFLY MET'MAP TEAM :

Programming & Development : Alexandra Zaïnal
Concept & original design : Baudouin d'Aumeries
Assistance for programming : Marc-Olivier Méhu
Technical & hardware support : Manuel Goepfert

Contact : metmap@orbifly.com




SOURCES & CREDITS :

   NOAA       Earth
Advisory